createdAt,value
2018-09-04T00:00:53.563Z,64.90
2018-09-04T00:03:23.780Z,65.00
2018-09-04T00:05:54.145Z,65.20
2018-09-04T00:08:24.346Z,65.00
2018-09-04T00:10:54.703Z,65.90
2018-09-04T00:13:24.821Z,66.10
2018-09-04T00:15:54.849Z,66.20
2018-09-04T00:18:24.935Z,65.90
2018-09-04T00:20:54.905Z,65.90
2018-09-04T00:23:25.057Z,66.40
2018-09-04T00:25:55.417Z,65.90
2018-09-04T00:28:25.586Z,66.00
2018-09-04T00:30:55.863Z,66.10
2018-09-04T00:33:25.851Z,66.40
2018-09-04T00:35:55.860Z,66.90
2018-09-04T00:38:25.779Z,66.80
2018-09-04T00:40:55.879Z,67.00
2018-09-04T00:43:25.788Z,67.10
2018-09-04T00:45:55.711Z,67.00
2018-09-04T00:48:25.682Z,67.00
2018-09-04T00:50:55.590Z,68.10
2018-09-04T00:53:25.526Z,67.80
2018-09-04T00:55:55.488Z,68.00
2018-09-04T00:58:25.418Z,67.90
2018-09-04T01:00:55.425Z,68.10
2018-09-04T01:03:25.326Z,67.90
2018-09-04T01:05:55.442Z,67.90
2018-09-04T01:08:25.363Z,67.90
2018-09-04T01:10:55.701Z,67.90
2018-09-04T01:13:25.712Z,67.90
2018-09-04T01:15:55.602Z,67.90
2018-09-04T01:18:25.830Z,67.90
2018-09-04T01:20:55.999Z,67.50
2018-09-04T01:23:25.927Z,67.80
2018-09-04T01:25:55.867Z,67.90
2018-09-04T01:28:32.161Z,67.30
2018-09-04T01:31:02.709Z,67.20
2018-09-04T01:33:33.144Z,67.70
2018-09-04T01:36:03.582Z,67.70
2018-09-04T01:38:33.783Z,68.30
2018-09-04T01:41:04.849Z,67.60
2018-09-04T01:43:35.482Z,67.60
2018-09-04T01:46:05.744Z,68.00
2018-09-04T01:48:36.055Z,68.50
2018-09-04T01:51:06.339Z,68.60
2018-09-04T01:53:36.785Z,68.30
2018-09-04T01:56:07.185Z,68.40
2018-09-04T01:58:37.698Z,68.50
2018-09-04T02:01:07.864Z,68.60
2018-09-04T02:03:38.349Z,68.20
2018-09-04T02:06:08.658Z,68.20
2018-09-04T02:08:39.107Z,68.20
2018-09-04T02:11:09.127Z,68.50
2018-09-04T02:13:39.415Z,68.40
2018-09-04T02:16:09.400Z,68.70
2018-09-04T02:18:39.507Z,69.10
2018-09-04T02:21:09.577Z,68.00
2018-09-04T02:23:39.687Z,68.20
2018-09-04T02:26:09.692Z,68.60
2018-09-04T02:28:40.009Z,69.30
2018-09-04T02:31:10.187Z,69.70
2018-09-04T02:33:40.196Z,69.90
2018-09-04T02:36:10.323Z,69.80
2018-09-04T02:38:40.334Z,68.80
2018-09-04T02:41:10.305Z,69.20
2018-09-04T02:43:40.223Z,69.00
2018-09-04T02:46:10.190Z,68.90
2018-09-04T02:48:40.264Z,69.30
2018-09-04T02:51:13.195Z,69.30
2018-09-04T02:53:43.176Z,69.10
2018-09-04T02:56:13.211Z,69.30
2018-09-04T02:58:43.198Z,69.20
2018-09-04T03:01:13.175Z,69.40
2018-09-04T03:03:43.116Z,70.00
2018-09-04T03:06:13.134Z,70.00
2018-09-04T03:08:43.131Z,70.00
2018-09-04T03:11:13.139Z,70.00
2018-09-04T03:13:43.121Z,69.60
2018-09-04T03:16:13.147Z,69.60
2018-09-04T03:18:43.039Z,69.70
2018-09-04T03:21:13.038Z,69.90
2018-09-04T03:23:43.006Z,70.00
2018-09-04T03:26:12.939Z,70.00
2018-09-04T03:28:42.934Z,70.20
2018-09-04T03:31:12.940Z,70.50
2018-09-04T03:33:42.980Z,69.70
2018-09-04T03:36:13.003Z,70.20
2018-09-04T03:38:43.021Z,70.60
2018-09-04T03:41:12.976Z,70.90
2018-09-04T03:43:42.910Z,71.00
2018-09-04T03:46:12.794Z,71.50
2018-09-04T03:48:42.831Z,71.00
2018-09-04T03:51:12.721Z,70.60
2018-09-04T03:53:43.059Z,71.10
2018-09-04T03:56:13.000Z,71.40
2018-09-04T03:58:43.046Z,71.40
2018-09-04T04:01:13.058Z,71.40
2018-09-04T04:03:43.020Z,71.30
2018-09-04T04:06:12.975Z,71.40
2018-09-04T04:08:42.942Z,72.10
2018-09-04T04:11:12.915Z,71.30
2018-09-04T04:13:42.790Z,71.60
2018-09-04T04:16:12.740Z,71.90
2018-09-04T04:18:42.702Z,71.70
2018-09-04T04:21:12.730Z,71.60
2018-09-04T04:23:42.729Z,72.20
2018-09-04T04:26:12.812Z,72.00
2018-09-04T04:28:42.752Z,71.40
2018-09-04T04:31:12.796Z,71.60
2018-09-04T04:33:42.925Z,71.80
2018-09-04T04:36:12.863Z,72.40
2018-09-04T04:38:43.072Z,72.60
2018-09-04T04:41:13.034Z,72.00
2018-09-04T04:43:43.044Z,71.90
2018-09-04T04:46:12.963Z,72.40
2018-09-04T04:48:43.910Z,71.40
2018-09-04T04:51:20.465Z,71.50
2018-09-04T04:53:50.523Z,71.50
2018-09-04T04:56:20.990Z,70.60
2018-09-04T04:58:51.132Z,71.20
2018-09-04T05:01:21.818Z,70.50
2018-09-04T05:03:52.105Z,70.60
2018-09-04T05:06:22.080Z,71.50
2018-09-04T05:08:52.070Z,71.00
2018-09-04T05:11:22.061Z,71.50
2018-09-04T05:13:52.017Z,71.50
2018-09-04T05:16:21.994Z,71.20
2018-09-04T05:18:52.067Z,70.90
2018-09-04T05:21:22.100Z,71.10
2018-09-04T05:23:52.035Z,71.30
2018-09-04T05:26:22.031Z,71.50
2018-09-04T05:28:52.996Z,71.50
2018-09-04T05:31:23.246Z,70.60
2018-09-04T05:33:53.367Z,70.40
2018-09-04T05:36:30.101Z,70.40
2018-09-04T05:39:01.036Z,69.90
2018-09-04T05:41:31.821Z,70.10
2018-09-04T05:44:02.606Z,69.80
2018-09-04T05:46:38.739Z,69.90
2018-09-04T05:49:09.507Z,69.40
2018-09-04T05:51:40.147Z,69.00
2018-09-04T05:54:10.276Z,69.20
2018-09-04T05:56:40.493Z,69.20
2018-09-04T05:59:10.684Z,68.60
2018-09-04T06:01:40.888Z,67.70
2018-09-04T06:04:10.899Z,68.10
2018-09-04T06:06:40.831Z,67.20
2018-09-04T06:09:10.755Z,67.80
2018-09-04T06:11:40.931Z,67.20
2018-09-04T06:14:10.892Z,66.70
2018-09-04T06:16:41.087Z,66.70
2018-09-04T06:19:11.224Z,66.90
2018-09-04T06:21:41.310Z,66.80
2018-09-04T06:24:11.297Z,66.80
2018-09-04T06:26:41.238Z,66.10
2018-09-04T06:29:11.245Z,65.70
2018-09-04T06:31:41.259Z,66.00
2018-09-04T06:34:11.284Z,65.50
2018-09-04T06:36:41.215Z,65.80
2018-09-04T06:39:11.748Z,65.30
2018-09-04T06:41:41.723Z,65.10
2018-09-04T06:44:11.796Z,64.60
2018-09-04T06:46:41.802Z,64.80
2018-09-04T06:49:11.686Z,64.40
2018-09-04T06:51:41.679Z,63.50
2018-09-04T06:54:11.774Z,64.30
2018-09-04T06:59:09.012Z,63.80
2018-09-04T07:01:39.235Z,62.60
2018-09-04T07:04:09.544Z,63.40
2018-09-04T07:06:39.715Z,62.90
2018-09-04T07:09:12.077Z,62.60
2018-09-04T07:11:42.835Z,62.30
2018-09-04T07:14:12.790Z,62.10
2018-09-04T07:16:42.995Z,61.60
2018-09-04T07:19:21.181Z,61.30
2018-09-04T07:21:51.238Z,61.20
2018-09-04T07:24:27.837Z,61.30
2018-09-04T07:26:58.001Z,61.70
2018-09-04T07:29:28.295Z,61.60
2018-09-04T07:31:58.289Z,61.60
2018-09-04T07:34:28.410Z,61.10
2018-09-04T07:36:59.169Z,61.50
2018-09-04T07:39:29.679Z,60.70
2018-09-04T07:42:00.783Z,60.20
2018-09-04T07:44:31.708Z,59.30
2018-09-04T07:47:02.327Z,59.20
2018-09-04T07:49:33.136Z,59.70
2018-09-04T07:52:04.100Z,59.00
2018-09-04T07:54:34.922Z,58.60
2018-09-04T07:57:06.348Z,58.30
2018-09-04T07:59:37.075Z,57.90
2018-09-04T08:02:08.667Z,57.90
2018-09-04T08:04:39.382Z,59.00
2018-09-04T08:07:09.500Z,58.90
2018-09-04T08:09:39.795Z,57.80
2018-09-04T08:12:09.823Z,57.60
2018-09-04T08:14:46.425Z,57.70
2018-09-04T08:17:16.445Z,57.40
2018-09-04T08:19:46.417Z,55.70
2018-09-04T08:22:16.395Z,56.10
2018-09-04T08:24:46.415Z,55.70
2018-09-04T08:27:16.375Z,55.60
2018-09-04T08:29:46.533Z,56.40
2018-09-04T08:32:16.539Z,55.80
2018-09-04T08:34:46.419Z,56.10
2018-09-04T08:37:16.367Z,55.00
2018-09-04T08:39:47.487Z,53.80
2018-09-04T08:42:17.627Z,53.50
2018-09-04T08:44:49.234Z,53.20
2018-09-04T08:47:19.571Z,53.10
2018-09-04T08:49:49.601Z,52.30
2018-09-04T08:52:19.527Z,52.00
2018-09-04T08:54:49.595Z,52.10
2018-09-04T08:57:19.506Z,52.00
2018-09-04T08:59:49.418Z,51.50
2018-09-04T09:02:19.366Z,53.00
2018-09-04T09:04:49.257Z,50.40
2018-09-04T09:07:19.201Z,49.50
2018-09-04T09:09:49.188Z,49.70
2018-09-04T09:12:19.129Z,49.30
2018-09-04T09:14:49.101Z,49.60
2018-09-04T09:17:19.162Z,48.60
2018-09-04T09:19:49.099Z,48.10
2018-09-04T09:22:19.030Z,48.70
2018-09-04T09:24:48.945Z,48.50
2018-09-04T09:27:18.913Z,48.40
2018-09-04T09:29:48.942Z,47.60
2018-09-04T09:32:18.883Z,47.30
2018-09-04T09:34:48.866Z,46.80
2018-09-04T09:37:18.757Z,46.90
2018-09-04T09:39:48.803Z,47.10
2018-09-04T09:42:18.875Z,45.50
2018-09-04T09:44:48.830Z,46.10
2018-09-04T09:47:18.763Z,45.70
2018-09-04T09:49:48.715Z,45.20
2018-09-04T09:52:18.647Z,44.90
2018-09-04T09:54:48.593Z,45.40
2018-09-04T09:57:18.634Z,45.60
2018-09-04T09:59:48.653Z,44.50
2018-09-04T10:02:22.075Z,43.50
2018-09-04T10:04:52.400Z,43.70
2018-09-04T10:07:22.922Z,43.20
2018-09-04T10:09:52.983Z,43.50
2018-09-04T10:12:22.972Z,44.10
2018-09-04T10:14:52.952Z,42.60
2018-09-04T10:17:22.875Z,43.20
2018-09-04T10:19:52.981Z,43.60
2018-09-04T10:22:22.881Z,42.10
2018-09-04T10:24:52.954Z,41.90
2018-09-04T10:27:22.834Z,41.80
2018-09-04T10:29:52.820Z,41.90
2018-09-04T10:32:22.787Z,41.90
2018-09-04T10:34:52.709Z,41.30
2018-09-04T10:37:22.677Z,41.50
2018-09-04T10:39:57.880Z,42.30
2018-09-04T10:42:32.325Z,42.10
2018-09-04T10:45:02.460Z,42.40
2018-09-04T10:47:32.437Z,42.20
2018-09-04T10:50:02.586Z,42.20
2018-09-04T10:52:32.465Z,41.00
2018-09-04T10:55:02.485Z,40.60
2018-09-04T10:57:32.522Z,39.30
2018-09-04T11:00:02.538Z,38.40
2018-09-04T11:02:32.518Z,39.60
2018-09-04T11:05:02.525Z,39.40
2018-09-04T11:07:32.554Z,40.50
2018-09-04T11:10:02.990Z,38.70
2018-09-04T11:12:32.738Z,40.20
2018-09-04T11:15:02.862Z,40.20
2018-09-04T11:17:32.973Z,39.70
2018-09-04T11:20:03.063Z,40.10
2018-09-04T11:22:33.053Z,39.30
2018-09-04T11:25:03.053Z,38.50
2018-09-04T11:27:33.050Z,37.90
2018-09-04T11:30:03.994Z,36.30
2018-09-04T11:32:34.987Z,35.40
2018-09-04T11:35:05.506Z,36.30
2018-09-04T11:37:37.782Z,35.30
2018-09-04T11:40:09.607Z,34.60
2018-09-04T11:42:40.084Z,34.30
2018-09-04T11:45:11.536Z,34.30
2018-09-04T11:47:42.515Z,33.60
2018-09-04T11:50:13.168Z,34.80
2018-09-04T11:52:43.198Z,34.70
2018-09-04T11:55:13.103Z,36.20
2018-09-04T11:57:43.052Z,35.50
2018-09-04T12:00:18.465Z,34.80
2018-09-04T12:02:48.435Z,34.80
2018-09-04T12:05:18.420Z,34.40
2018-09-04T12:07:48.411Z,33.50
2018-09-04T12:10:18.397Z,33.20
2018-09-04T12:12:48.445Z,33.50
2018-09-04T12:15:18.498Z,33.00
2018-09-04T12:17:48.361Z,34.00
2018-09-04T12:20:37.810Z,34.20
2018-09-04T12:23:08.101Z,34.20
2018-09-04T12:25:38.679Z,34.20
2018-09-04T12:28:08.815Z,35.30
2018-09-04T12:30:38.911Z,33.80
2018-09-04T12:33:09.229Z,35.20
2018-09-04T12:35:39.324Z,35.90
2018-09-04T12:38:11.066Z,36.00
2018-09-04T12:40:40.941Z,36.70
2018-09-04T12:43:10.943Z,36.50
2018-09-04T12:45:46.343Z,36.00
2018-09-04T12:48:23.773Z,36.20
2018-09-04T12:50:55.018Z,35.30
2018-09-04T12:53:25.700Z,34.90
2018-09-04T12:55:55.679Z,34.60
2018-09-04T12:58:25.760Z,34.10
2018-09-04T13:00:56.502Z,33.30
2018-09-04T13:03:27.565Z,33.30
2018-09-04T13:05:57.713Z,33.20
2018-09-04T13:08:29.308Z,33.10
2018-09-04T13:10:59.298Z,33.50
2018-09-04T13:13:29.982Z,34.50
2018-09-04T13:16:01.239Z,32.70
2018-09-04T13:18:31.523Z,33.20
2018-09-04T13:21:03.758Z,32.70
2018-09-04T13:23:35.460Z,31.90
2018-09-04T13:26:05.561Z,33.10
2018-09-04T13:28:35.718Z,33.00
2018-09-04T13:31:05.985Z,33.20
2018-09-04T13:33:36.215Z,33.70
2018-09-04T13:36:06.459Z,32.70
2018-09-04T13:38:36.559Z,33.70
2018-09-04T13:41:07.185Z,33.40
2018-09-04T13:43:38.999Z,33.40
2018-09-04T13:46:09.398Z,33.40
2018-09-04T13:48:39.602Z,33.10
2018-09-04T13:51:09.757Z,33.40
2018-09-04T13:53:39.989Z,31.90
2018-09-04T13:56:10.300Z,31.70
2018-09-04T13:58:40.316Z,31.70
2018-09-04T14:01:10.759Z,31.90
2018-09-04T14:03:41.035Z,31.80
2018-09-04T14:06:11.200Z,32.40
2018-09-04T14:08:41.467Z,33.60
2018-09-04T14:11:11.471Z,33.20
2018-09-04T14:13:41.657Z,34.10
2018-09-04T14:16:13.378Z,33.70
2018-09-04T14:18:43.389Z,33.90
2018-09-04T14:21:13.409Z,34.10
2018-09-04T14:23:43.360Z,34.80
2018-09-04T14:26:13.480Z,35.30
2018-09-04T14:28:43.473Z,35.20
2018-09-04T14:31:13.409Z,35.30
2018-09-04T14:33:43.356Z,34.50
2018-09-04T14:36:13.428Z,35.50
2018-09-04T14:38:43.425Z,35.50
2018-09-04T14:41:13.418Z,34.50
2018-09-04T14:43:43.408Z,34.70
2018-09-04T14:46:13.419Z,35.40
2018-09-04T14:48:43.331Z,35.10
2018-09-04T14:51:13.323Z,35.30
2018-09-04T14:53:43.238Z,35.50
2018-09-04T14:56:13.330Z,35.30
2018-09-04T14:58:43.378Z,35.40
2018-09-04T15:01:13.302Z,35.90
2018-09-04T15:03:43.250Z,35.80
2018-09-04T15:06:13.307Z,35.60
2018-09-04T15:08:43.271Z,35.70
2018-09-04T15:11:13.182Z,35.80
2018-09-04T15:13:43.188Z,35.70
2018-09-04T15:16:13.115Z,35.80
2018-09-04T15:18:43.113Z,35.90
2018-09-04T15:21:13.088Z,35.70
2018-09-04T15:23:43.067Z,36.00
2018-09-04T15:26:13.463Z,35.70
2018-09-04T15:28:43.508Z,35.70
2018-09-04T15:31:13.478Z,35.70
2018-09-04T15:33:43.514Z,35.70
2018-09-04T15:36:13.548Z,35.70
2018-09-04T15:38:43.531Z,35.70
2018-09-04T15:41:13.701Z,36.20
2018-09-04T15:43:43.726Z,35.90
2018-09-04T15:46:13.728Z,35.70
2018-09-04T15:48:43.749Z,35.60
2018-09-04T15:51:13.732Z,35.60
2018-09-04T15:53:43.679Z,35.50
2018-09-04T15:56:14.074Z,35.50
2018-09-04T15:58:44.066Z,35.90
2018-09-04T16:01:14.066Z,36.00
2018-09-04T16:03:44.181Z,35.90
2018-09-04T16:06:14.202Z,35.80
2018-09-04T16:08:44.237Z,35.50
2018-09-04T16:11:14.725Z,35.50
2018-09-04T16:13:44.737Z,35.40
2018-09-04T16:16:14.767Z,35.50
2018-09-04T16:18:44.809Z,34.60
2018-09-04T16:21:14.790Z,35.30
2018-09-04T16:23:44.802Z,35.50
2018-09-04T16:26:14.787Z,35.40
2018-09-04T16:28:44.943Z,35.90
2018-09-04T16:31:14.870Z,35.50
2018-09-04T16:33:56.457Z,35.50
2018-09-04T16:36:26.704Z,36.00
2018-09-04T16:38:57.114Z,35.70
2018-09-04T16:41:27.144Z,35.50
2018-09-04T16:44:11.353Z,34.70
2018-09-04T16:46:41.663Z,34.70
2018-09-04T16:49:11.858Z,34.40
2018-09-04T16:51:44.521Z,34.70
2018-09-04T16:54:15.312Z,35.10
2018-09-04T16:57:11.492Z,34.80
2018-09-04T16:59:41.767Z,35.10
2018-09-04T17:02:38.063Z,35.20
2018-09-04T17:05:08.531Z,35.00
2018-09-04T17:07:39.172Z,35.30
2018-09-04T17:10:10.073Z,35.60
2018-09-04T17:12:41.027Z,35.00
2018-09-04T17:15:11.789Z,34.90
2018-09-04T17:17:41.878Z,35.10
2018-09-04T17:20:12.691Z,35.10
2018-09-04T17:22:43.166Z,34.80
2018-09-04T17:25:13.127Z,34.90
2018-09-04T17:27:43.193Z,35.40
2018-09-04T17:30:19.910Z,35.30
2018-09-04T17:32:58.665Z,35.30
2018-09-04T17:39:12.544Z,35.30
2018-09-04T17:41:42.623Z,36.10
2018-09-04T17:44:12.662Z,36.00
2018-09-04T17:46:43.038Z,36.20
2018-09-04T17:49:13.240Z,36.30
2018-09-04T17:51:43.354Z,36.40
2018-09-04T17:54:13.513Z,36.40
2018-09-04T17:56:43.700Z,36.80
2018-09-04T17:59:13.710Z,37.20
2018-09-04T18:01:44.314Z,37.20
2018-09-04T18:04:14.364Z,37.60
2018-09-04T18:06:44.502Z,37.60
2018-09-04T18:09:14.586Z,37.50
2018-09-04T18:11:44.521Z,37.60
2018-09-04T18:14:14.532Z,38.10
2018-09-04T18:16:44.575Z,38.50
2018-09-04T18:19:29.254Z,38.90
2018-09-04T18:25:01.923Z,39.90
2018-09-04T18:27:32.370Z,40.60
2018-09-04T18:30:02.481Z,41.20
2018-09-04T18:32:32.419Z,41.80
2018-09-04T18:35:02.519Z,42.70
2018-09-04T18:40:27.218Z,44.30
2018-09-04T18:43:17.310Z,45.10
2018-09-04T18:45:54.549Z,46.20
2018-09-04T18:48:24.922Z,46.50
2018-09-04T18:50:54.895Z,47.00
2018-09-04T18:53:33.440Z,47.30
2018-09-04T18:56:03.528Z,47.80
2018-09-04T18:58:33.566Z,48.70
2018-09-04T19:01:19.132Z,50.00
2018-09-04T19:03:51.079Z,49.90
2018-09-04T19:06:21.369Z,50.40
2018-09-04T19:08:51.448Z,50.80
2018-09-04T19:11:21.494Z,50.90
2018-09-04T19:13:51.458Z,51.40
2018-09-04T19:16:21.503Z,51.80
2018-09-04T19:18:51.644Z,52.10
2018-09-04T19:21:21.670Z,52.50
2018-09-04T19:23:51.655Z,53.00
2018-09-04T19:26:21.695Z,53.20
2018-09-04T19:28:51.983Z,53.50
2018-09-04T19:31:21.976Z,53.70
2018-09-04T19:33:51.988Z,54.00
2018-09-04T19:36:22.060Z,54.50
2018-09-04T19:38:52.008Z,55.10
2018-09-04T19:41:22.075Z,55.00
2018-09-04T19:43:51.966Z,55.50
2018-09-04T19:46:22.039Z,55.80
2018-09-04T19:48:52.018Z,56.40
2018-09-04T19:51:22.023Z,56.80
2018-09-04T19:53:52.048Z,57.10
2018-09-04T19:56:22.063Z,57.50
2018-09-04T19:58:52.110Z,58.20
2018-09-04T20:01:22.209Z,58.20
2018-09-04T20:03:52.211Z,58.60
2018-09-04T20:06:22.161Z,58.60
2018-09-04T20:08:52.165Z,59.00
2018-09-04T20:11:22.116Z,59.10
2018-09-04T20:13:52.812Z,59.10
2018-09-04T20:16:22.760Z,59.10
2018-09-04T20:18:52.746Z,59.70
2018-09-04T20:21:22.683Z,59.90
2018-09-04T20:23:52.642Z,59.80
2018-09-04T20:26:22.632Z,60.20
2018-09-04T20:28:52.603Z,60.30
2018-09-04T20:31:22.593Z,60.50
2018-09-04T20:33:52.555Z,60.70
2018-09-04T20:36:22.571Z,61.20
2018-09-04T20:38:52.547Z,61.30
2018-09-04T20:41:22.543Z,61.60
2018-09-04T20:43:52.590Z,61.90
2018-09-04T20:46:22.600Z,62.00
2018-09-04T20:48:52.711Z,62.10
2018-09-04T20:51:22.648Z,62.40
2018-09-04T20:53:52.557Z,62.80
2018-09-04T20:56:22.571Z,63.40
2018-09-04T20:59:09.483Z,63.30
2018-09-04T21:01:56.437Z,63.30
2018-09-04T21:04:43.268Z,63.40
2018-09-04T21:07:15.927Z,64.00
2018-09-04T21:09:51.223Z,64.50
2018-09-04T21:12:21.179Z,64.60
2018-09-04T21:14:51.209Z,65.00
2018-09-04T21:17:21.263Z,65.20
2018-09-04T21:19:51.247Z,65.70
2018-09-04T21:22:21.232Z,66.10
2018-09-04T21:24:51.154Z,66.20
2018-09-04T21:27:21.162Z,66.50
2018-09-04T21:29:51.110Z,66.70
2018-09-04T21:32:21.158Z,66.90
2018-09-04T21:34:51.118Z,66.60
2018-09-04T21:37:21.087Z,67.20
2018-09-04T21:39:51.054Z,67.80
2018-09-04T21:42:21.086Z,67.70
2018-09-04T21:44:50.945Z,68.00
2018-09-04T21:47:21.063Z,67.70
2018-09-04T21:49:50.986Z,67.80
2018-09-04T21:52:20.960Z,68.20
2018-09-04T21:54:50.918Z,69.10
2018-09-04T21:57:20.831Z,68.90
2018-09-04T21:59:50.778Z,69.20
2018-09-04T22:02:20.729Z,69.50
2018-09-04T22:04:50.674Z,69.40
2018-09-04T22:07:20.577Z,69.70
2018-09-04T22:09:50.495Z,70.80
2018-09-04T22:12:20.509Z,71.90
2018-09-04T22:14:50.457Z,72.20
2018-09-04T22:17:20.417Z,72.30
2018-09-04T22:19:50.400Z,72.30
2018-09-04T22:22:20.331Z,72.70
2018-09-04T22:24:50.339Z,73.30
2018-09-04T22:27:20.237Z,73.40
2018-09-04T22:29:50.257Z,73.70
2018-09-04T22:32:20.137Z,73.90
2018-09-04T22:34:50.094Z,73.90
2018-09-04T22:37:20.015Z,74.30
2018-09-04T22:39:50.002Z,75.00
2018-09-04T22:42:19.931Z,76.10
2018-09-04T22:44:49.881Z,76.80
2018-09-04T22:47:19.755Z,76.70
2018-09-04T22:49:55.179Z,76.90
2018-09-04T22:52:30.576Z,77.80
2018-09-04T22:55:04.292Z,78.40
2018-09-04T22:57:34.338Z,78.10
2018-09-04T23:00:04.630Z,78.70
2018-09-04T23:02:34.777Z,78.90
2018-09-04T23:05:04.970Z,79.50
2018-09-04T23:07:35.133Z,80.70
2018-09-04T23:10:05.385Z,81.30
2018-09-04T23:12:35.487Z,81.10
2018-09-04T23:15:05.708Z,80.70
2018-09-04T23:17:35.838Z,82.10
2018-09-04T23:20:06.090Z,82.30
2018-09-04T23:22:36.326Z,82.10
2018-09-04T23:25:06.468Z,82.40
2018-09-04T23:27:36.605Z,83.50
2018-09-04T23:30:06.861Z,84.40
2018-09-04T23:32:37.330Z,84.70
2018-09-04T23:35:07.725Z,84.70
2018-09-04T23:37:38.612Z,85.70
2018-09-04T23:40:08.712Z,85.60
2018-09-04T23:42:39.379Z,85.40
2018-09-04T23:45:12.250Z,85.60
2018-09-04T23:47:43.008Z,85.80
2018-09-04T23:50:13.030Z,86.70
2018-09-04T23:52:43.562Z,87.40
2018-09-04T23:55:13.506Z,87.80
2018-09-04T23:57:43.564Z,88.70
